Terminal Aerodrome Forecast
Issued by NWS

Current Version | Previous Version | Graphics & Text | Print | Product List | Glossary Off
Versions: 1 2 3 4 5 6 7 8 9 10 11 12 13 14 15 16 17 18 19 20 21 22 23

000
FTUS41 KRLX 010500 RRA
TAFCKB
TAF
KCKB 010553Z 0106/0206 00000KT 4SM BR SCT010
     FM010800 00000KT 2SM BR BKN010
     FM011300 00000KT 4SM HZ BKN014
     FM011700 25004KT 6SM HZ BKN020
     FM020100 00000KT 6SM BR SCT025
     FM020400 00000KT 5SM BR SCT025=

USA.gov is the U.S. government's official web portal to all federal, state and local government web resources and services.